createdAt,value
2018-03-08T00:01:29.037Z,99.90
2018-03-08T00:03:57.783Z,99.90
2018-03-08T00:06:26.539Z,99.90
2018-03-08T00:08:56.050Z,99.90
2018-03-08T00:11:24.805Z,99.90
2018-03-08T00:13:53.553Z,99.90
2018-03-08T00:16:22.313Z,99.90
2018-03-08T00:18:51.506Z,99.90
2018-03-08T00:21:21.016Z,99.90
2018-03-08T00:23:50.530Z,99.90
2018-03-08T00:26:19.281Z,99.90
2018-03-08T00:28:48.033Z,99.90
2018-03-08T00:31:16.780Z,99.90
2018-03-08T00:33:46.300Z,99.90
2018-03-08T00:36:15.828Z,99.90
2018-03-08T00:38:44.580Z,99.90
2018-03-08T00:41:13.755Z,99.90
2018-03-08T00:43:42.513Z,99.90
2018-03-08T00:46:11.265Z,99.90
2018-03-08T00:48:40.775Z,99.90
2018-03-08T00:51:10.285Z,99.90
2018-03-08T00:53:39.026Z,99.90
2018-03-08T00:56:07.781Z,99.90
2018-03-08T00:58:36.519Z,99.90
2018-03-08T01:01:04.945Z,99.90
2018-03-08T01:03:33.639Z,99.90
2018-03-08T01:06:02.317Z,99.90
2018-03-08T01:08:30.971Z,99.90
2018-03-08T01:10:59.950Z,99.90
2018-03-08T01:13:28.606Z,99.90
2018-03-08T01:15:57.248Z,99.90
2018-03-08T01:18:26.670Z,99.90
2018-03-08T01:20:56.079Z,99.90
2018-03-08T01:23:25.495Z,99.90
2018-03-08T01:25:54.150Z,99.90
2018-03-08T01:28:23.569Z,99.90
2018-03-08T01:30:52.999Z,99.90
2018-03-08T01:33:21.650Z,99.90
2018-03-08T01:35:50.410Z,99.90
2018-03-08T01:38:19.065Z,99.90
2018-03-08T01:40:47.724Z,99.90
2018-03-08T01:43:17.426Z,99.90
2018-03-08T01:45:46.863Z,99.90
2018-03-08T01:48:15.518Z,99.90
2018-03-08T01:50:44.938Z,99.90
2018-03-08T01:53:13.587Z,99.90
2018-03-08T01:55:42.243Z,99.90
2018-03-08T01:58:10.910Z,99.90
2018-03-08T02:00:38.898Z,99.90
2018-03-08T02:03:07.553Z,99.90
2018-03-08T02:05:36.215Z,99.90
2018-03-08T02:08:04.537Z,99.90
2018-03-08T02:10:33.186Z,99.90
2018-03-08T02:13:02.602Z,99.90
2018-03-08T02:15:30.957Z,99.90
2018-03-08T02:17:59.671Z,99.90
2018-03-08T02:20:28.347Z,99.90
2018-03-08T02:22:57.775Z,99.90
2018-03-08T02:25:26.434Z,99.90
2018-03-08T02:27:55.847Z,99.90
2018-03-08T02:30:25.266Z,99.90
2018-03-08T02:32:53.935Z,99.90
2018-03-08T02:35:22.606Z,99.90
2018-03-08T02:37:52.027Z,99.90
2018-03-08T02:40:20.698Z,99.90
2018-03-08T02:42:50.124Z,99.90
2018-03-08T02:45:18.784Z,99.90
2018-03-08T02:47:48.210Z,99.90
2018-03-08T02:50:17.634Z,99.90
2018-03-08T02:52:48.805Z,99.90
2018-03-08T02:55:17.480Z,99.90
2018-03-08T02:57:46.134Z,99.90
2018-03-08T03:00:14.687Z,99.90
2018-03-08T03:05:17.090Z,99.90
2018-03-08T03:07:45.734Z,99.90
2018-03-08T03:10:14.988Z,99.90
2018-03-08T03:12:43.643Z,99.90
2018-03-08T03:15:12.502Z,99.90
2018-03-08T03:17:41.155Z,99.90
2018-03-08T03:20:10.571Z,99.90
2018-03-08T03:22:39.244Z,99.90
2018-03-08T03:25:08.669Z,99.90
2018-03-08T03:27:37.914Z,99.90
2018-03-08T03:30:06.229Z,99.90
2018-03-08T03:32:35.654Z,99.90
2018-03-08T03:35:03.649Z,99.90
2018-03-08T03:37:32.298Z,99.90
2018-03-08T03:40:00.942Z,99.90
2018-03-08T03:42:29.590Z,99.90
2018-03-08T03:44:59.057Z,99.90
2018-03-08T03:47:27.513Z,99.90
2018-03-08T03:49:56.165Z,99.90
2018-03-08T03:55:06.009Z,99.90
2018-03-08T03:57:34.691Z,99.90
2018-03-08T04:00:04.187Z,99.90
2018-03-08T04:02:33.608Z,99.90
2018-03-08T04:05:02.867Z,99.90
2018-03-08T04:07:31.523Z,99.90
2018-03-08T04:10:00.170Z,99.90
2018-03-08T04:12:29.587Z,99.90
2018-03-08T04:14:58.240Z,99.90
2018-03-08T04:17:26.923Z,99.90
2018-03-08T04:19:55.574Z,99.90
2018-03-08T04:22:24.277Z,99.90
2018-03-08T04:24:53.096Z,99.90
2018-03-08T04:27:23.116Z,99.90
2018-03-08T04:29:52.554Z,99.90
2018-03-08T04:32:21.215Z,99.90
2018-03-08T04:34:50.639Z,99.90
2018-03-08T04:37:19.290Z,99.90
2018-03-08T04:39:47.943Z,99.90
2018-03-08T04:42:16.589Z,99.90
2018-03-08T04:44:46.116Z,99.90
2018-03-08T04:47:14.767Z,99.90
2018-03-08T04:49:44.183Z,99.90
2018-03-08T04:52:13.613Z,99.90
2018-03-08T04:54:42.267Z,99.90
2018-03-08T04:57:11.690Z,99.90
2018-03-08T04:59:40.347Z,99.90
2018-03-08T05:02:09.947Z,99.90
2018-03-08T05:04:38.604Z,99.90
2018-03-08T05:07:07.256Z,99.90
2018-03-08T05:09:35.924Z,99.90
2018-03-08T05:12:05.343Z,99.90
2018-03-08T05:14:33.996Z,99.90
2018-03-08T05:17:02.647Z,99.90
2018-03-08T05:19:31.314Z,99.90
2018-03-08T05:21:59.776Z,99.90
2018-03-08T05:24:28.446Z,99.90
2018-03-08T05:26:57.892Z,99.90
2018-03-08T05:29:27.557Z,99.90
2018-03-08T05:31:56.265Z,99.90
2018-03-08T05:34:25.147Z,99.90
2018-03-08T05:36:53.806Z,99.90
2018-03-08T05:39:22.482Z,99.90
2018-03-08T05:41:51.145Z,99.90
2018-03-08T05:44:19.807Z,99.90
2018-03-08T05:46:48.466Z,99.90
2018-03-08T05:49:17.890Z,99.90
2018-03-08T05:51:46.554Z,99.90
2018-03-08T05:54:16.016Z,99.90
2018-03-08T05:56:44.687Z,99.90
2018-03-08T05:59:14.948Z,99.90
2018-03-08T06:01:43.623Z,99.90
2018-03-08T06:04:12.327Z,99.90
2018-03-08T06:06:41.036Z,99.90
2018-03-08T06:09:10.476Z,99.90
2018-03-08T06:11:39.139Z,99.90
2018-03-08T06:14:09.416Z,99.90
2018-03-08T06:16:38.133Z,99.90
2018-03-08T06:19:10.855Z,99.90
2018-03-08T06:21:40.800Z,99.90
2018-03-08T06:24:09.586Z,99.90
2018-03-08T06:26:39.979Z,99.90
2018-03-08T06:29:08.655Z,99.90
2018-03-08T06:31:37.335Z,99.90
2018-03-08T06:34:06.416Z,99.90
2018-03-08T06:36:35.074Z,99.90
2018-03-08T06:39:03.460Z,99.90
2018-03-08T06:41:33.042Z,99.90
2018-03-08T06:44:01.700Z,99.90
2018-03-08T06:46:31.305Z,99.90
2018-03-08T06:48:59.996Z,99.90
2018-03-08T06:51:28.673Z,99.90
2018-03-08T06:53:58.569Z,99.90
2018-03-08T06:56:27.994Z,99.90
2018-03-08T06:58:56.658Z,99.90
2018-03-08T07:01:25.328Z,99.90
2018-03-08T07:03:54.003Z,99.90
2018-03-08T07:06:22.662Z,99.90
2018-03-08T07:08:51.318Z,99.90
2018-03-08T07:11:20.755Z,99.90
2018-03-08T07:13:49.419Z,99.90
2018-03-08T07:16:18.855Z,99.90
2018-03-08T07:18:47.551Z,99.90
2018-03-08T07:21:15.894Z,99.90
2018-03-08T07:23:44.550Z,99.90
2018-03-08T07:26:13.672Z,99.90
2018-03-08T07:28:42.358Z,99.90
2018-03-08T07:31:11.792Z,99.90
2018-03-08T07:33:40.461Z,99.90
2018-03-08T07:36:09.366Z,99.90
2018-03-08T07:38:38.037Z,99.90
2018-03-08T07:41:06.710Z,99.90
2018-03-08T07:43:36.148Z,99.90
2018-03-08T07:46:04.828Z,99.90
2018-03-08T07:48:33.485Z,99.90
2018-03-08T07:51:02.923Z,99.90
2018-03-08T07:53:31.600Z,99.90
2018-03-08T07:56:00.270Z,99.90
2018-03-08T07:58:28.750Z,99.90
2018-03-08T08:00:57.429Z,99.90
2018-03-08T08:03:26.876Z,99.90
2018-03-08T08:06:06.643Z,99.90
2018-03-08T08:09:01.647Z,99.90
2018-03-08T08:11:30.323Z,99.80
2018-03-08T08:13:58.995Z,99.90
2018-03-08T08:16:27.665Z,99.90
2018-03-08T08:18:56.036Z,98.40
2018-03-08T08:21:25.540Z,99.20
2018-03-08T08:23:55.176Z,99.20
2018-03-08T08:26:23.835Z,98.60
2018-03-08T08:28:52.511Z,98.20
2018-03-08T08:33:58.989Z,98.80
2018-03-08T08:36:27.716Z,97.80
2018-03-08T08:38:57.002Z,97.70
2018-03-08T08:41:25.685Z,98.60
2018-03-08T08:43:54.356Z,98.60
2018-03-08T08:46:23.786Z,98.50
2018-03-08T08:48:52.462Z,98.50
2018-03-08T08:51:21.137Z,97.00
2018-03-08T08:53:50.587Z,96.80
2018-03-08T08:56:19.254Z,96.80
2018-03-08T08:58:47.926Z,96.60
2018-03-08T09:01:16.415Z,96.70
2018-03-08T09:03:46.912Z,94.50
2018-03-08T09:08:53.376Z,94.40
2018-03-08T09:11:22.030Z,93.60
2018-03-08T09:13:50.708Z,93.20
2018-03-08T09:16:19.368Z,92.40
2018-03-08T09:18:48.795Z,92.60
2018-03-08T09:21:18.243Z,92.50
2018-03-08T09:23:46.919Z,91.60
2018-03-08T09:26:16.398Z,91.10
2018-03-08T09:28:45.063Z,90.80
2018-03-08T09:31:14.521Z,85.60
2018-03-08T09:33:43.196Z,85.50
2018-03-08T09:36:12.353Z,76.90
2018-03-08T09:38:41.775Z,68.00
2018-03-08T09:41:10.475Z,67.90
2018-03-08T09:43:39.151Z,65.80
2018-03-08T09:46:07.828Z,65.40
2018-03-08T09:48:36.512Z,65.90
2018-03-08T09:51:06.010Z,68.50
2018-03-08T09:53:35.456Z,63.10
2018-03-08T09:56:03.791Z,63.10
2018-03-08T09:58:33.232Z,60.30
2018-03-08T10:01:01.930Z,60.10
2018-03-08T10:03:30.868Z,61.60
2018-03-08T10:06:00.307Z,61.90
2018-03-08T10:08:29.867Z,61.80
2018-03-08T10:10:58.531Z,61.40
2018-03-08T10:13:27.224Z,62.20
2018-03-08T10:15:55.950Z,59.70
2018-03-08T10:18:24.608Z,59.10
2018-03-08T10:20:53.864Z,60.80
2018-03-08T10:23:22.551Z,61.60
2018-03-08T10:25:51.288Z,61.50
2018-03-08T10:28:20.860Z,61.90
2018-03-08T10:30:49.531Z,61.70
2018-03-08T10:33:18.228Z,61.20
2018-03-08T10:35:47.050Z,61.90
2018-03-08T10:38:15.719Z,62.90
2018-03-08T10:40:44.385Z,61.90
2018-03-08T10:43:13.043Z,60.30
2018-03-08T10:45:42.458Z,58.40
2018-03-08T10:48:11.550Z,57.80
2018-03-08T10:50:40.978Z,59.00
2018-03-08T10:53:09.304Z,59.00
2018-03-08T10:55:37.971Z,60.00
2018-03-08T10:58:07.522Z,58.80
2018-03-08T11:00:43.055Z,61.40
2018-03-08T11:03:11.719Z,61.40
2018-03-08T11:05:53.132Z,58.20
2018-03-08T11:08:22.424Z,58.80
2018-03-08T11:10:51.850Z,55.80
2018-03-08T11:13:21.290Z,52.20
2018-03-08T11:15:49.947Z,52.10
2018-03-08T11:18:19.372Z,49.70
2018-03-08T11:20:48.265Z,49.70
2018-03-08T11:23:17.222Z,49.10
2018-03-08T11:25:45.540Z,49.00
2018-03-08T11:28:14.200Z,49.60
2018-03-08T11:30:43.694Z,49.00
2018-03-08T11:33:12.364Z,49.00
2018-03-08T11:35:41.032Z,50.50
2018-03-08T11:38:10.650Z,50.30
2018-03-08T11:40:38.995Z,49.60
2018-03-08T11:43:07.656Z,47.60
2018-03-08T11:45:36.334Z,46.90
2018-03-08T11:48:05.434Z,47.70
2018-03-08T11:50:35.233Z,47.60
2018-03-08T11:53:05.722Z,47.70
2018-03-08T11:55:34.399Z,47.60
2018-03-08T11:58:04.071Z,46.90
2018-03-08T12:00:33.507Z,47.30
2018-03-08T12:03:02.167Z,47.30
2018-03-08T12:05:31.599Z,47.70
2018-03-08T12:08:00.265Z,47.70
2018-03-08T12:10:28.930Z,48.50
2018-03-08T12:12:57.588Z,48.00
2018-03-08T12:15:26.247Z,46.80
2018-03-08T12:17:55.033Z,46.80
2018-03-08T12:20:23.450Z,46.00
2018-03-08T12:22:52.264Z,46.10
2018-03-08T12:25:21.696Z,45.50
2018-03-08T12:27:50.380Z,45.40
2018-03-08T12:30:19.053Z,44.80
2018-03-08T12:32:47.727Z,44.70
2018-03-08T12:35:17.170Z,44.50
2018-03-08T12:37:45.834Z,44.50
2018-03-08T12:40:14.928Z,44.60
2018-03-08T12:42:43.592Z,44.60
2018-03-08T12:45:12.255Z,45.80
2018-03-08T12:47:40.927Z,45.70
2018-03-08T12:50:09.595Z,46.20
2018-03-08T12:52:38.258Z,45.20
2018-03-08T12:55:07.691Z,44.70
2018-03-08T12:57:36.362Z,44.70
2018-03-08T13:00:04.718Z,45.10
2018-03-08T13:02:34.148Z,45.10
2018-03-08T13:05:02.816Z,45.00
2018-03-08T13:07:32.266Z,45.30
2018-03-08T13:10:00.946Z,45.30
2018-03-08T13:12:29.603Z,45.50
2018-03-08T13:14:58.272Z,45.20
2018-03-08T13:17:27.732Z,45.60
2018-03-08T13:19:56.395Z,45.50
2018-03-08T13:22:25.052Z,45.40
2018-03-08T13:24:54.479Z,45.30
2018-03-08T13:27:23.182Z,45.20
2018-03-08T13:29:51.881Z,45.00
2018-03-08T13:32:20.554Z,44.30
2018-03-08T13:34:49.217Z,44.50
2018-03-08T13:37:18.652Z,43.00
2018-03-08T13:39:47.316Z,43.00
2018-03-08T13:42:15.986Z,42.90
2018-03-08T13:44:45.413Z,42.40
2018-03-08T13:47:14.084Z,42.30
2018-03-08T13:49:44.284Z,41.20
2018-03-08T13:52:12.959Z,41.20
2018-03-08T13:54:42.211Z,40.00
2018-03-08T13:57:10.870Z,40.40
2018-03-08T13:59:40.948Z,40.80
2018-03-08T14:02:09.115Z,41.30
2018-03-08T14:04:39.815Z,40.20
2018-03-08T14:07:09.260Z,40.20
2018-03-08T14:09:39.830Z,40.70
2018-03-08T14:12:09.272Z,41.20
2018-03-08T14:14:37.932Z,41.10
2018-03-08T14:17:07.173Z,40.30
2018-03-08T14:19:35.847Z,40.30
2018-03-08T14:22:05.279Z,39.90
2018-03-08T14:24:33.943Z,39.70
2018-03-08T14:27:02.660Z,40.50
2018-03-08T14:29:31.482Z,41.10
2018-03-08T14:32:00.933Z,42.00
2018-03-08T14:34:30.518Z,42.00
2018-03-08T14:36:59.175Z,42.00
2018-03-08T14:39:28.614Z,41.80
2018-03-08T14:41:58.696Z,41.70
2018-03-08T14:44:28.135Z,41.80
2018-03-08T14:46:56.807Z,41.80
2018-03-08T14:49:25.899Z,41.20
2018-03-08T14:51:55.379Z,41.60
2018-03-08T14:54:23.903Z,42.30
2018-03-08T14:56:52.572Z,42.60
2018-03-08T15:02:01.142Z,42.60
2018-03-08T15:04:30.577Z,42.10
2018-03-08T15:06:59.239Z,42.10
2018-03-08T15:09:27.927Z,41.00
2018-03-08T15:11:56.607Z,41.20
2018-03-08T15:14:25.286Z,41.30
2018-03-08T15:16:55.111Z,41.00
2018-03-08T15:19:23.811Z,39.90
2018-03-08T15:21:52.481Z,39.10
2018-03-08T15:24:22.105Z,39.40
2018-03-08T15:26:51.010Z,39.00
2018-03-08T15:29:19.695Z,38.50
2018-03-08T15:31:50.385Z,38.00
2018-03-08T15:34:18.911Z,37.40
2018-03-08T15:36:47.605Z,37.40
2018-03-08T15:39:15.975Z,37.10
2018-03-08T15:41:46.264Z,36.80
2018-03-08T15:44:15.980Z,36.30
2018-03-08T15:46:44.650Z,35.60
2018-03-08T15:49:13.323Z,35.60
2018-03-08T15:51:44.806Z,36.60
2018-03-08T15:54:13.842Z,36.50
2018-03-08T15:56:42.501Z,36.30
2018-03-08T15:59:11.162Z,35.70
2018-03-08T16:01:39.831Z,36.50
2018-03-08T16:04:09.500Z,37.20
2018-03-08T16:06:49.437Z,37.20
2018-03-08T16:09:29.564Z,38.40
2018-03-08T16:11:58.282Z,39.10
2018-03-08T16:14:27.834Z,40.30
2018-03-08T16:16:57.284Z,41.70
2018-03-08T16:19:27.137Z,41.60
2018-03-08T16:21:56.586Z,43.00
2018-03-08T16:24:25.247Z,42.90
2018-03-08T16:26:54.677Z,43.60
2018-03-08T16:32:08.069Z,44.00
2018-03-08T16:34:36.734Z,44.00
2018-03-08T16:37:05.400Z,44.00
2018-03-08T16:39:34.812Z,54.10
2018-03-08T16:42:03.488Z,73.70
2018-03-08T16:44:33.658Z,56.10
2018-03-08T16:47:03.228Z,55.50
2018-03-08T16:49:31.893Z,55.00
2018-03-08T16:52:00.557Z,53.50
2018-03-08T16:54:29.223Z,53.10
2018-03-08T16:56:57.908Z,50.70
2018-03-08T16:59:27.507Z,50.80
2018-03-08T17:01:57.271Z,50.90
2018-03-08T17:04:26.029Z,48.40
2018-03-08T17:06:55.071Z,49.10
2018-03-08T17:09:24.707Z,49.00
2018-03-08T17:11:53.552Z,49.00
2018-03-08T17:14:22.995Z,50.20
2018-03-08T17:16:51.675Z,50.10
2018-03-08T17:19:21.870Z,51.30
2018-03-08T17:21:50.527Z,51.20
2018-03-08T17:24:19.184Z,52.50
2018-03-08T17:26:47.873Z,52.70
2018-03-08T17:29:39.800Z,53.00
2018-03-08T17:32:11.850Z,53.60
2018-03-08T17:37:38.371Z,54.70
2018-03-08T17:40:08.595Z,54.60
2018-03-08T17:42:37.272Z,55.00
2018-03-08T17:45:05.943Z,54.90
2018-03-08T17:47:34.289Z,55.10
2018-03-08T17:50:02.942Z,56.00
2018-03-08T17:52:33.107Z,55.60
2018-03-08T17:55:01.764Z,55.50
2018-03-08T17:57:30.418Z,55.80
2018-03-08T17:59:59.851Z,56.20
2018-03-08T18:02:28.519Z,56.20
2018-03-08T18:04:58.887Z,56.50
2018-03-08T18:07:27.538Z,56.40
2018-03-08T18:09:56.968Z,56.50
2018-03-08T18:12:25.630Z,56.40
2018-03-08T18:14:55.290Z,56.60
2018-03-08T18:17:23.975Z,56.40
2018-03-08T18:19:54.221Z,57.00
2018-03-08T18:22:25.508Z,57.10
2018-03-08T18:24:54.204Z,57.50
2018-03-08T18:27:29.897Z,57.90
2018-03-08T18:29:58.386Z,58.30
2018-03-08T18:32:27.760Z,58.80
2018-03-08T18:34:56.163Z,59.10
2018-03-08T18:37:24.855Z,59.40
2018-03-08T18:39:53.800Z,60.00
2018-03-08T18:42:22.147Z,60.50
2018-03-08T18:44:51.582Z,62.10
2018-03-08T18:47:20.249Z,62.10
2018-03-08T18:49:49.703Z,63.30
2018-03-08T18:52:18.409Z,63.20
2018-03-08T18:54:47.071Z,63.80
2018-03-08T18:57:15.739Z,64.60
2018-03-08T18:59:44.473Z,65.40
2018-03-08T19:02:13.555Z,67.10
2018-03-08T19:04:42.286Z,68.00
2018-03-08T19:07:11.858Z,69.70
2018-03-08T19:09:41.491Z,70.00
2018-03-08T19:12:10.957Z,71.50
2018-03-08T19:14:39.627Z,71.40
2018-03-08T19:17:09.611Z,72.50
2018-03-08T19:19:38.913Z,73.50
2018-03-08T19:22:08.367Z,74.50
2018-03-08T19:24:37.266Z,74.60
2018-03-08T19:27:06.704Z,75.30
2018-03-08T19:29:35.946Z,76.80
2018-03-08T19:32:04.618Z,77.10
2018-03-08T19:34:33.280Z,78.40
2018-03-08T19:37:03.436Z,80.80
2018-03-08T19:39:33.041Z,80.70
2018-03-08T19:42:03.917Z,84.60
2018-03-08T19:44:32.575Z,82.50
2018-03-08T19:47:01.259Z,82.60
2018-03-08T19:49:29.941Z,83.90
2018-03-08T19:51:59.459Z,84.20
2018-03-08T19:54:29.650Z,83.80
2018-03-08T19:56:59.696Z,84.60
2018-03-08T19:59:28.675Z,84.60
2018-03-08T20:01:57.866Z,86.40
2018-03-08T20:04:27.695Z,86.90
2018-03-08T20:06:56.419Z,87.00
2018-03-08T20:09:25.092Z,86.00
2018-03-08T20:11:53.763Z,86.90
2018-03-08T20:14:22.418Z,86.50
2018-03-08T20:16:51.074Z,86.90
2018-03-08T20:19:19.739Z,86.40
2018-03-08T20:21:49.018Z,86.50
2018-03-08T20:24:18.437Z,86.30
2018-03-08T20:26:48.026Z,87.30
2018-03-08T20:29:16.733Z,87.10
2018-03-08T20:31:45.576Z,86.40
2018-03-08T20:34:14.059Z,86.00
2018-03-08T20:36:43.494Z,95.00
2018-03-08T20:39:13.069Z,94.40
2018-03-08T20:41:42.468Z,92.80
2018-03-08T20:44:11.919Z,90.10
2018-03-08T20:46:40.599Z,90.00
2018-03-08T20:49:09.995Z,90.00
2018-03-08T20:51:39.410Z,88.90
2018-03-08T20:54:08.555Z,87.40
2018-03-08T20:56:38.424Z,87.60
2018-03-08T21:01:43.721Z,86.80
2018-03-08T21:04:12.375Z,86.10
2018-03-08T21:06:41.914Z,85.80
2018-03-08T21:09:11.506Z,99.90
2018-03-08T21:11:40.170Z,99.90
2018-03-08T21:14:08.840Z,99.90
2018-03-08T21:16:38.319Z,96.40
2018-03-08T21:19:07.418Z,88.60
2018-03-08T21:21:36.575Z,90.20
2018-03-08T21:24:06.525Z,89.80
2018-03-08T21:26:34.866Z,90.00
2018-03-08T21:29:03.568Z,87.70
2018-03-08T21:31:32.303Z,87.20
2018-03-08T21:34:00.995Z,85.80
2018-03-08T21:36:30.156Z,85.60
2018-03-08T21:38:59.272Z,84.00
2018-03-08T21:41:28.746Z,82.00
2018-03-08T21:43:57.428Z,81.90
2018-03-08T21:46:26.101Z,82.10
2018-03-08T21:48:54.762Z,81.10
2018-03-08T21:51:23.430Z,79.70
2018-03-08T21:53:52.869Z,80.90
2018-03-08T21:56:21.526Z,81.70
2018-03-08T21:58:51.449Z,80.40
2018-03-08T22:01:20.143Z,80.40
2018-03-08T22:03:48.966Z,79.80
2018-03-08T22:06:23.859Z,78.90
2018-03-08T22:08:52.963Z,78.90
2018-03-08T22:11:21.639Z,79.40
2018-03-08T22:13:50.320Z,78.50
2018-03-08T22:16:19.415Z,77.50
2018-03-08T22:18:48.086Z,76.60
2018-03-08T22:21:17.526Z,72.90
2018-03-08T22:23:46.190Z,72.40
2018-03-08T22:26:15.624Z,70.90
2018-03-08T22:28:44.292Z,70.30
2018-03-08T22:31:12.956Z,68.30
2018-03-08T22:33:42.410Z,65.40
2018-03-08T22:36:11.684Z,65.40
2018-03-08T22:38:40.340Z,64.80
2018-03-08T22:41:08.995Z,65.10
2018-03-08T22:43:37.659Z,64.30
2018-03-08T22:46:06.329Z,64.30
2018-03-08T22:48:34.992Z,63.00
2018-03-08T22:51:04.426Z,61.70
2018-03-08T22:53:33.110Z,61.50
2018-03-08T22:56:02.598Z,61.00
2018-03-08T22:58:32.127Z,59.60
2018-03-08T23:01:02.576Z,59.60
2018-03-08T23:03:31.237Z,60.90
2018-03-08T23:05:59.906Z,60.90
2018-03-08T23:08:29.346Z,60.80
2018-03-08T23:10:58.011Z,60.80
2018-03-08T23:13:26.674Z,59.70
2018-03-08T23:15:56.107Z,58.10
2018-03-08T23:18:24.770Z,58.00
2018-03-08T23:20:53.862Z,59.70
2018-03-08T23:23:23.292Z,59.60
2018-03-08T23:25:51.981Z,59.40
2018-03-08T23:28:20.647Z,58.40
2018-03-08T23:30:50.059Z,62.00
2018-03-08T23:33:19.478Z,73.60
2018-03-08T23:35:48.136Z,73.60
2018-03-08T23:38:17.567Z,86.50
2018-03-08T23:40:46.225Z,86.50
2018-03-08T23:43:15.659Z,88.80
2018-03-08T23:45:44.306Z,88.70
2018-03-08T23:48:12.957Z,90.40
2018-03-08T23:50:41.606Z,90.70
2018-03-08T23:53:11.039Z,86.70
2018-03-08T23:55:39.707Z,86.60
2018-03-08T23:58:14.774Z,85.50
